Time;durP1;ratioP1;P1;durP2;ratioP2;P2;SDS_P1;SDS_P2;PMS_P1;PMS_P2;Temp;Humidity;BMP_temperature;BMP_pressure;BME280_temperature;BME280_humidity;BME280_pressure;Samples;Min_cycle;Max_cycle;Signal;HPM_P1;HPM_P2
2022/12/14 00:01:16;;;;;;;46.88;23.50;;;;;;;-2.44;79.88;98719.64;1748014;82;21638;-39
2022/12/14 00:03:42;;;;;;;46.08;24.15;;;;;;;-2.43;80.00;98723.49;1748216;81;20991;-40
2022/12/14 00:06:21;;;;;;;45.67;23.10;;;;;;;-2.50;80.06;98727.01;1748067;81;21042;-40
2022/12/14 00:08:50;;;;;;;40.12;21.45;;;;;;;-2.43;80.08;98726.52;1748013;81;21000;-42
2022/12/14 00:11:18;;;;;;;45.65;22.98;;;;;;;-2.47;79.89;98735.99;1748065;81;21444;-36
2022/12/14 00:13:45;;;;;;;46.10;24.63;;;;;;;-2.51;79.49;98734.30;1737733;82;21075;-43
2022/12/14 00:16:15;;;;;;;45.07;23.90;;;;;;;-2.49;79.30;98733.00;1748325;81;20957;-40
2022/12/14 00:18:41;;;;;;;44.63;22.62;;;;;;;-2.53;79.26;98734.76;1748038;82;21854;-38
2022/12/14 00:21:10;;;;;;;42.58;22.65;;;;;;;-2.54;79.82;98733.07;1748165;81;20983;-38
2022/12/14 00:23:37;;;;;;;37.50;20.25;;;;;;;-2.56;79.85;98735.66;1748025;81;21500;-41
2022/12/14 00:26:22;;;;;;;44.48;23.42;;;;;;;-2.80;80.19;98735.50;1748133;81;21035;-44
2022/12/14 00:28:51;;;;;;;48.33;22.85;;;;;;;-2.66;79.75;98737.06;1748113;81;20992;-35
2022/12/14 00:31:18;;;;;;;45.67;23.70;;;;;;;-2.74;79.98;98740.56;1748090;81;21469;-39
2022/12/14 00:33:45;;;;;;;44.00;23.62;;;;;;;-2.74;79.88;98732.84;1748186;81;21030;-41
2022/12/14 00:36:11;;;;;;;43.83;23.22;;;;;;;-2.73;79.66;98735.85;1748037;81;21043;-43
2022/12/14 00:38:38;;;;;;;45.47;23.77;;;;;;;-2.73;79.39;98728.13;1748330;81;21043;-41
2022/12/14 00:41:05;;;;;;;39.75;22.48;;;;;;;-2.71;79.35;98730.25;1748191;81;21456;-43
2022/12/14 00:43:31;;;;;;;43.75;23.27;;;;;;;-2.70;79.55;98725.50;1748227;81;21004;-41
2022/12/14 00:45:57;;;;;;;41.83;22.77;;;;;;;-2.74;79.82;98726.41;1748116;81;21520;-39
2022/12/14 00:48:24;;;;;;;42.35;21.27;;;;;;;-2.80;79.43;98718.77;1748099;81;20988;-40
2022/12/14 00:50:52;;;;;;;39.15;20.50;;;;;;;-2.76;78.97;98717.86;1748166;81;20994;-36
2022/12/14 00:53:18;;;;;;;43.85;22.60;;;;;;;-2.78;78.95;98714.45;1748009;81;21018;-40
2022/12/14 00:55:47;;;;;;;41.00;21.55;;;;;;;-2.83;78.42;98711.52;1748065;82;21485;-39
2022/12/14 00:58:15;;;;;;;40.15;20.92;;;;;;;-2.86;78.63;98713.67;1748090;81;21493;-38
2022/12/14 01:00:43;;;;;;;43.60;21.97;;;;;;;-2.85;78.76;98710.69;1748019;82;21532;-39
2022/12/14 01:03:11;;;;;;;44.05;23.20;;;;;;;-2.80;79.08;98715.32;1748170;81;20977;-38
2022/12/14 01:05:37;;;;;;;42.13;22.30;;;;;;;-2.87;79.02;98709.82;1748021;81;21007;-42
2022/12/14 01:08:05;;;;;;;44.83;22.67;;;;;;;-2.85;79.08;98707.67;1748219;82;21047;-39
2022/12/14 01:10:30;;;;;;;44.98;23.00;;;;;;;-2.90;79.27;98703.00;1748149;82;21015;-42
2022/12/14 01:12:56;;;;;;;43.90;23.00;;;;;;;-2.92;79.27;98705.58;1755171;80;21016;-36
2022/12/14 01:15:22;;;;;;;38.85;22.35;;;;;;;-2.98;79.33;98703.53;1761376;81;20995;-39
2022/12/14 01:17:51;;;;;;;42.95;22.80;;;;;;;-3.00;79.60;98707.39;1761340;81;20991;-40
2022/12/14 01:20:17;;;;;;;42.58;23.02;;;;;;;-3.05;79.85;98705.74;1761281;81;21039;-37
2022/12/14 01:22:43;;;;;;;43.28;21.45;;;;;;;-3.12;79.71;98709.64;1761313;81;21523;-36
2022/12/14 01:25:09;;;;;;;41.53;21.82;;;;;;;-3.16;80.34;98704.11;1761347;81;20999;-35
2022/12/14 01:27:35;;;;;;;43.75;21.85;;;;;;;-3.15;80.60;98698.53;1761336;81;21512;-38
2022/12/14 01:30:01;;;;;;;41.35;21.82;;;;;;;-3.16;80.29;98700.26;1761300;81;20991;-38
2022/12/14 01:32:26;;;;;;;40.70;20.52;;;;;;;-3.33;80.38;98704.69;1761365;81;20951;-40
2022/12/14 01:34:52;;;;;;;43.92;22.10;;;;;;;-3.22;80.18;98703.31;1761246;81;20991;-39
2022/12/14 01:37:18;;;;;;;46.80;23.27;;;;;;;-3.30;80.82;98703.38;1761394;81;20995;-37
2022/12/14 01:39:44;;;;;;;49.10;22.87;;;;;;;-3.37;80.88;98699.16;1761311;81;20964;-38
2022/12/14 01:42:14;;;;;;;44.95;23.35;;;;;;;-3.51;81.06;98696.28;1761332;80;20995;-39
2022/12/14 01:44:51;;;;;;;44.85;22.15;;;;;;;-3.37;80.97;98699.16;1761316;81;21003;-38
2022/12/14 01:47:23;;;;;;;40.28;21.27;;;;;;;-3.36;81.15;98691.44;1761425;81;21038;-43
2022/12/14 01:50:08;;;;;;;40.40;20.97;;;;;;;-3.37;80.78;98692.29;1761302;81;21468;-41
2022/12/14 01:52:39;;;;;;;46.53;24.57;;;;;;;-3.38;81.04;98688.03;1761335;80;21003;-40
2022/12/14 01:55:19;;;;;;;47.35;25.02;;;;;;;-3.36;81.66;98690.16;1744305;81;21465;-37
2022/12/14 01:58:08;;;;;;;54.05;27.62;;;;;;;-3.42;81.35;98689.34;1761147;81;20984;-40
2022/12/14 02:00:34;;;;;;;50.17;25.50;;;;;;;-3.60;81.90;98684.80;1761303;81;20987;-37
2022/12/14 02:03:11;;;;;;;56.53;26.85;;;;;;;-3.60;82.07;98678.37;1761338;81;21023;-42
2022/12/14 02:05:42;;;;;;;49.05;24.35;;;;;;;-3.52;81.97;98678.30;1761478;81;20999;-42
2022/12/14 02:08:09;;;;;;;46.02;22.85;;;;;;;-3.51;82.05;98679.58;1761234;81;21030;-37
2022/12/14 02:10:35;;;;;;;47.23;23.22;;;;;;;-3.53;81.63;98678.73;1761483;81;20999;-39
2022/12/14 02:13:37;;;;;;;47.43;21.97;;;;;;;-3.60;82.04;98677.09;1755401;80;21027;-40
2022/12/14 02:16:03;;;;;;;46.58;23.90;;;;;;;-3.67;81.89;98675.42;1748001;82;21461;-39
2022/12/14 02:18:31;;;;;;;46.58;22.75;;;;;;;-3.62;82.25;98680.10;1747949;81;20991;-41
2022/12/14 02:21:17;;;;;;;52.62;24.50;;;;;;;-3.71;82.00;98674.59;1748048;81;21003;-40
2022/12/14 02:23:54;;;;;;;51.07;24.73;;;;;;;-3.60;81.96;98679.66;1748241;81;20992;-40
2022/12/14 02:27:00;;;;;;;43.92;23.80;;;;;;;-3.57;82.11;98678.77;1748120;81;21019;-37
2022/12/14 02:29:51;;;;;;;49.23;24.20;;;;;;;-3.60;81.95;98674.52;1748223;81;21519;-41
2022/12/14 02:32:31;;;;;;;46.80;22.87;;;;;;;-3.55;81.71;98679.16;1747964;81;20961;-39
2022/12/14 02:35:18;;;;;;;47.83;21.97;;;;;;;-3.64;81.24;98675.38;1747796;81;20991;-40
2022/12/14 02:37:49;;;;;;;43.58;23.05;;;;;;;-3.64;81.24;98675.38;1748135;81;20983;-41
2022/12/14 02:43:01;;;;;;;43.28;22.25;;;;;;;-3.65;81.08;98674.98;1733154;80;21605;-39
2022/12/14 02:45:50;;;;;;;;;;;;;;;-3.66;80.81;98682.25;1739029;82;20955;-40
2022/12/14 02:48:22;;;;;;;39.45;18.35;;;;;;;-3.72;81.12;98674.16;1736519;82;20451;-41
2022/12/14 02:51:01;;;;;;;39.65;20.57;;;;;;;-3.74;80.64;98674.61;1735290;82;21498;-42
2022/12/14 02:53:44;;;;;;;43.02;21.23;;;;;;;-3.82;80.61;98672.95;1736838;82;21033;-40
2022/12/14 02:56:16;;;;;;;38.90;20.12;;;;;;;-3.93;81.06;98679.05;1736636;82;21510;-38
2022/12/14 02:58:49;;;;;;;38.65;20.25;;;;;;;-3.93;81.06;98679.05;1736774;82;21142;-41
2022/12/14 03:01:18;;;;;;;39.05;19.52;;;;;;;-3.93;81.12;98673.91;1736832;82;21013;-39
2022/12/14 03:03:44;;;;;;;38.42;19.52;;;;;;;-4.06;81.31;98682.13;1707855;82;20998;-39
2022/12/14 03:06:24;;;;;;;32.78;18.50;;;;;;;-4.06;81.31;98682.13;1707625;82;21001;-39
2022/12/14 03:08:45;;;;;;;33.20;18.62;;;;;;;-4.00;81.63;98685.49;1736322;82;21174;-40
2022/12/14 03:11:17;;;;;;;34.95;18.02;;;;;;;-4.04;81.42;98687.23;1736844;81;20987;-39
2022/12/14 03:13:54;;;;;;;32.00;19.23;;;;;;;-4.04;81.42;98687.23;1736201;82;21013;-41
2022/12/14 03:16:26;;;;;;;;;;;;;;;-4.01;80.95;98692.35;1739343;82;21155;-36
2022/12/14 03:19:19;;;;;;;36.75;19.90;;;;;;;-4.07;81.96;98693.25;1735547;82;20128;-39
2022/12/14 03:21:49;;;;;;;35.52;18.67;;;;;;;-4.03;81.17;98686.81;1736676;82;20994;-38
2022/12/14 03:24:20;;;;;;;41.45;19.62;;;;;;;-3.98;80.88;98691.06;1736754;82;21030;-39
2022/12/14 03:27:00;;;;;;;33.02;16.60;;;;;;;-4.12;81.06;98682.14;1736742;82;21042;-40
2022/12/14 03:29:31;;;;;;;30.12;16.00;;;;;;;-4.12;81.06;98682.14;1736666;82;21002;-42
2022/12/14 03:32:07;;;;;;;34.95;18.17;;;;;;;-4.18;80.93;98674.90;1707679;82;21009;-42
2022/12/14 03:34:39;;;;;;;29.32;15.85;;;;;;;-4.22;81.02;98668.95;1736870;82;20994;-38
2022/12/14 03:37:19;;;;;;;31.60;15.38;;;;;;;-4.23;81.75;98671.09;1736743;82;21049;-39
2022/12/14 03:39:46;;;;;;;31.73;16.15;;;;;;;-4.23;81.75;98671.09;1736552;82;20982;-37
2022/12/14 03:42:26;;;;;;;31.25;16.40;;;;;;;-4.22;81.57;98677.06;1733938;82;21507;-37
2022/12/14 03:45:12;;;;;;;36.58;19.15;;;;;;;-4.28;81.50;98681.81;1726575;83;20979;-39
2022/12/14 03:47:55;;;;;;;36.70;18.02;;;;;;;-4.23;81.97;98681.36;1723913;82;21480;-41
2022/12/14 03:50:39;;;;;;;33.83;17.60;;;;;;;-4.21;82.03;98678.34;1723512;83;21002;-38
2022/12/14 03:53:22;;;;;;;35.25;18.15;;;;;;;-4.20;81.81;98675.34;1723842;83;21030;-39
2022/12/14 03:56:08;;;;;;;33.15;17.23;;;;;;;-4.12;81.89;98669.75;1723800;83;20987;-37
2022/12/14 03:58:51;;;;;;;35.10;17.57;;;;;;;-4.12;81.89;98669.75;1723999;83;20993;-40
2022/12/14 04:01:50;;;;;;;36.75;17.70;;;;;;;-4.08;81.40;98672.27;1723745;83;20983;-43
2022/12/14 04:04:33;;;;;;;33.10;17.65;;;;;;;-4.07;81.33;98661.59;1720424;83;21030;-42
2022/12/14 04:07:10;;;;;;;30.10;16.15;;;;;;;-4.05;81.11;98665.84;1723537;82;20998;-36
2022/12/14 04:09:57;;;;;;;31.20;16.73;;;;;;;-3.95;80.83;98661.48;1723942;83;21511;-38
2022/12/14 04:21:03;;;;;;;38.05;18.15;;;;;;;-4.07;78.91;98650.88;1723986;83;20975;-42
2022/12/14 04:26:26;;;;;;;36.83;18.65;;;;;;;-4.11;78.76;98649.20;1723991;83;21474;-39
2022/12/14 04:31:55;;;;;;;39.90;19.40;;;;;;;-4.21;78.94;98653.11;1724007;82;20990;-42
2022/12/14 04:34:25;;;;;;;41.88;20.37;;;;;;;-4.33;78.46;98648.48;1723869;83;21003;-42
2022/12/14 04:36:58;;;;;;;43.95;20.68;;;;;;;-4.33;78.46;98648.48;1723910;82;20995;-38
2022/12/14 04:39:32;;;;;;;38.63;20.72;;;;;;;-4.35;78.86;98649.33;1723913;82;21538;-43
2022/12/14 04:42:01;;;;;;;43.68;20.88;;;;;;;-4.31;79.06;98644.19;1721797;83;21072;-36
2022/12/14 04:44:36;;;;;;;41.48;20.32;;;;;;;-4.31;79.06;98644.19;1716303;83;21035;-38
2022/12/14 04:47:06;;;;;;;41.92;21.37;;;;;;;-4.35;78.85;98651.45;1716219;83;21034;-40
2022/12/14 04:49:50;;;;;;;41.95;21.97;;;;;;;-4.39;79.05;98641.23;1696030;83;21559;-41
2022/12/14 04:52:27;;;;;;;48.55;23.80;;;;;;;-4.45;79.35;98644.69;1714843;83;21528;-36
2022/12/14 04:55:04;;;;;;;44.03;20.70;;;;;;;-4.43;79.18;98648.09;1716293;83;21523;-38
2022/12/14 04:57:44;;;;;;;42.95;21.87;;;;;;;-4.54;79.08;98643.45;1716292;83;20990;-40
2022/12/14 05:00:12;;;;;;;41.88;21.37;;;;;;;-4.61;79.30;98640.06;1715404;83;21539;-40
2022/12/14 05:03:14;;;;;;;47.80;21.57;;;;;;;-4.61;79.44;98634.08;1716395;83;21583;-39
2022/12/14 05:05:49;;;;;;;45.30;22.10;;;;;;;-4.63;79.11;98634.93;1716248;83;21488;-38
2022/12/14 05:08:42;;;;;;;50.75;24.40;;;;;;;-4.71;79.55;98624.27;1714822;83;20998;-41
2022/12/14 05:11:28;;;;;;;47.38;23.18;;;;;;;-4.71;79.55;98624.27;1716446;83;21511;-40
2022/12/14 05:13:54;;;;;;;53.70;23.70;;;;;;;-4.76;79.39;98615.34;1648448;83;21011;-35
2022/12/14 05:16:22;;;;;;;48.25;24.20;;;;;;;-4.74;78.96;98624.31;1716146;83;20971;-37
2022/12/14 05:18:49;;;;;;;49.53;23.20;;;;;;;-4.80;79.02;98623.03;1716308;83;21002;-40
2022/12/14 05:24:02;;;;;;;49.27;24.12;;;;;;;-4.81;78.82;98626.04;1716196;82;21511;-38
2022/12/14 05:26:30;;;;;;;56.37;25.48;;;;;;;-4.82;78.91;98624.31;1716189;83;21031;-43
2022/12/14 05:28:56;;;;;;;48.75;23.38;;;;;;;-4.86;78.33;98620.95;1716203;83;21011;-40
2022/12/14 05:31:23;;;;;;;53.73;23.57;;;;;;;-4.90;78.61;98623.52;1716184;83;21030;-35
2022/12/14 05:33:49;;;;;;;51.90;23.90;;;;;;;-4.88;78.38;98623.08;1716344;83;21010;-37
2022/12/14 05:36:15;;;;;;;46.35;22.80;;;;;;;-4.95;78.03;98619.67;1716204;83;20979;-40
2022/12/14 05:38:40;;;;;;;49.75;24.05;;;;;;;-4.91;77.97;98617.95;1716206;83;21002;-41
2022/12/14 05:41:06;;;;;;;45.40;22.67;;;;;;;-4.95;77.66;98615.83;1716201;82;20986;-37
2022/12/14 05:43:32;;;;;;;44.93;22.58;;;;;;;-4.94;77.53;98623.11;1725933;82;20999;-40
2022/12/14 05:46:03;;;;;;;55.88;24.00;;;;;;;-5.08;77.38;98618.86;1708451;83;20982;-39
2022/12/14 05:48:30;;;;;;;49.48;22.30;;;;;;;-5.02;77.31;98618.86;1728803;83;21037;-38
2022/12/14 05:51:06;;;;;;;48.92;22.55;;;;;;;-5.01;77.07;98610.73;1728912;83;21464;-36
2022/12/14 05:53:33;;;;;;;46.13;22.85;;;;;;;-5.03;76.97;98612.02;1728222;83;21002;-35
2022/12/14 05:56:00;;;;;;;44.98;22.15;;;;;;;-5.06;77.00;98606.92;1728972;83;20991;-42
2022/12/14 05:58:25;;;;;;;56.28;24.18;;;;;;;-5.11;76.90;98613.77;1728721;83;20997;-41
2022/12/14 06:00:51;;;;;;;53.40;25.82;;;;;;;-5.12;76.40;98617.61;1728786;83;21027;-38
2022/12/14 06:03:17;;;;;;;56.08;25.90;;;;;;;-5.09;76.21;98620.17;1728800;83;21033;-40
2022/12/14 06:05:43;;;;;;;51.85;25.52;;;;;;;-5.14;75.96;98610.36;1728766;83;21009;-36
2022/12/14 06:08:09;;;;;;;54.67;27.52;;;;;;;-5.17;75.69;98618.89;1728769;83;21038;-37
2022/12/14 06:10:35;;;;;;;63.20;29.23;;;;;;;-5.23;75.50;98621.48;1728812;83;21007;-42
2022/12/14 06:13:00;;;;;;;67.55;29.10;;;;;;;-5.29;75.39;98616.39;1728787;83;21496;-38
2022/12/14 06:15:27;;;;;;;72.60;32.05;;;;;;;-5.36;75.39;98618.54;1728850;83;21002;-37
2022/12/14 06:17:53;;;;;;;68.00;32.33;;;;;;;-5.36;75.66;98617.26;1728784;83;21047;-39
2022/12/14 06:20:19;;;;;;;71.28;32.75;;;;;;;-5.45;75.33;98616.41;1728796;83;20991;-39
2022/12/14 06:22:44;;;;;;;78.92;34.80;;;;;;;-5.51;75.58;98619.39;1728784;83;21038;-38
2022/12/14 06:25:10;;;;;;;88.03;39.05;;;;;;;-5.50;75.52;98619.39;1728790;82;21030;-35
2022/12/14 06:27:36;;;;;;;76.35;35.30;;;;;;;-5.57;75.15;98623.26;1728951;83;20994;-40
2022/12/14 06:30:02;;;;;;;72.87;33.15;;;;;;;-5.62;75.08;98620.69;1728914;83;21050;-37
2022/12/14 06:32:28;;;;;;;74.53;33.78;;;;;;;-5.69;75.29;98623.70;1729073;83;21030;-41
2022/12/14 06:34:54;;;;;;;70.90;32.98;;;;;;;-5.69;75.08;98619.86;1728968;83;20971;-41
2022/12/14 06:37:19;;;;;;;76.45;35.75;;;;;;;-5.89;75.12;98626.70;1728889;82;21042;-37
2022/12/14 06:39:45;;;;;;;76.25;35.92;;;;;;;-6.09;75.80;98624.14;1728900;83;21037;-38
2022/12/14 06:42:11;;;;;;;87.65;38.08;;;;;;;-6.04;75.90;98619.88;1728406;83;21426;-38
2022/12/14 06:44:36;;;;;;;87.72;38.00;;;;;;;-6.00;75.63;98621.18;1713549;83;21179;-37
2022/12/14 06:47:03;;;;;;;88.25;41.20;;;;;;;-6.02;75.39;98625.45;1713577;84;20999;-36
2022/12/14 06:49:28;;;;;;;92.55;41.55;;;;;;;-6.18;75.46;98621.17;1713569;84;21042;-41
2022/12/14 06:51:54;;;;;;;80.07;38.17;;;;;;;-6.15;75.14;98623.71;1713531;84;20970;-42
2022/12/14 06:54:20;;;;;;;83.35;37.48;;;;;;;-6.32;75.03;98619.02;1713473;83;20992;-40
2022/12/14 06:56:46;;;;;;;86.90;38.88;;;;;;;-6.40;75.21;98622.41;1713513;83;20963;-41
2022/12/14 06:59:13;;;;;;;92.02;40.05;;;;;;;-6.33;75.00;98620.73;1713759;84;21002;-38
2022/12/14 07:01:39;;;;;;;98.12;39.92;;;;;;;-6.32;74.95;98620.30;1713653;84;21035;-41
2022/12/14 07:04:06;;;;;;;88.80;38.13;;;;;;;-6.34;74.89;98616.45;1713714;84;21583;-39
2022/12/14 07:06:37;;;;;;;88.40;40.23;;;;;;;-6.35;75.10;98623.69;1713622;84;21030;-39
2022/12/14 07:09:05;;;;;;;85.97;39.78;;;;;;;-6.35;74.62;98624.97;1713418;84;21046;-40
2022/12/14 07:11:31;;;;;;;91.87;39.15;;;;;;;-6.40;74.32;98625.41;1713460;84;21434;-39
2022/12/14 07:13:59;;;;;;;85.20;40.40;;;;;;;-6.46;74.76;98617.27;1713318;84;21016;-38
2022/12/14 07:16:28;;;;;;;80.50;37.93;;;;;;;-6.45;75.11;98616.86;1713377;82;20955;-39
2022/12/14 07:18:54;;;;;;;88.40;39.70;;;;;;;-6.49;74.98;98612.57;1713522;84;20995;-40
2022/12/14 07:21:22;;;;;;;81.67;36.90;;;;;;;-6.49;75.26;98608.73;1713453;84;20999;-37
2022/12/14 07:23:48;;;;;;;;;;;;;;;-6.49;74.98;98607.45;1716049;84;21598;-42
2022/12/14 07:26:19;;;;;;;77.87;35.93;;;;;;;-6.49;74.98;98610.01;1713802;83;20125;-36
2022/12/14 07:28:45;;;;;;;77.47;35.48;;;;;;;-6.54;75.29;98608.73;1713482;82;21511;-39
2022/12/14 07:31:16;;;;;;;80.47;35.43;;;;;;;-6.50;75.11;98611.72;1713706;84;20984;-38
2022/12/14 07:33:43;;;;;;;81.82;37.88;;;;;;;-6.48;74.91;98607.46;1713211;84;21042;-38
2022/12/14 07:36:14;;;;;;;91.42;37.38;;;;;;;-6.44;75.10;98609.60;1713519;84;21528;-40
2022/12/14 07:38:42;;;;;;;79.85;36.53;;;;;;;-6.50;74.93;98607.05;1712951;82;21006;-38
2022/12/14 07:41:15;;;;;;;78.45;35.40;;;;;;;-6.49;75.36;98602.34;1713437;84;21531;-39
2022/12/14 07:43:43;;;;;;;81.85;36.00;;;;;;;-6.49;75.27;98598.50;1712769;83;21023;-39
2022/12/14 07:46:13;;;;;;;77.20;35.13;;;;;;;-6.41;75.32;98595.11;1713536;84;21488;-38
2022/12/14 07:48:47;;;;;;;85.70;39.20;;;;;;;-6.35;75.49;98591.70;1713391;82;20995;-38
2022/12/14 07:51:16;;;;;;;107.43;44.50;;;;;;;-6.29;75.32;98590.45;1712827;84;20987;-38
2022/12/14 07:53:42;;;;;;;150.20;54.35;;;;;;;-6.24;75.05;98596.44;1713542;84;21003;-43
2022/12/14 07:56:14;;;;;;;94.95;42.62;;;;;;;-6.19;75.06;98587.02;1713437;84;21042;-39
2022/12/14 07:58:41;;;;;;;70.85;32.50;;;;;;;-6.19;74.60;98599.82;1713423;84;21033;-36
2022/12/14 08:01:21;;;;;;;76.53;34.60;;;;;;;-6.17;74.40;98603.67;1713641;82;21591;-42
2022/12/14 08:03:56;;;;;;;76.67;33.13;;;;;;;-6.14;74.76;98598.56;1713428;84;21019;-42
2022/12/14 08:06:25;;;;;;;73.17;32.53;;;;;;;-6.10;74.68;98586.62;1713400;84;21030;-36
2022/12/14 08:08:52;;;;;;;78.50;33.73;;;;;;;-6.00;74.77;98594.30;1713376;84;21496;-39
2022/12/14 08:11:22;;;;;;;62.15;28.95;;;;;;;-6.02;74.63;98583.61;1713472;84;21014;-39
2022/12/14 08:14:00;;;;;;;64.75;29.70;;;;;;;-6.14;74.65;98592.59;1713430;84;21055;-38
2022/12/14 08:16:27;;;;;;;64.32;29.23;;;;;;;-6.01;76.76;98595.14;1712092;83;21006;-42
2022/12/14 08:18:55;;;;;;;65.87;30.85;;;;;;;-6.00;75.34;98585.77;1713822;84;20979;-38
2022/12/14 08:21:22;;;;;;;62.93;28.95;;;;;;;-6.13;75.41;98581.48;1713451;84;20991;-41
2022/12/14 08:23:49;;;;;;;65.37;29.60;;;;;;;-6.13;75.41;98590.45;1713655;84;20999;-39
2022/12/14 08:26:16;;;;;;;59.95;30.62;;;;;;;-6.04;75.49;98587.89;1713508;84;21045;-36
2022/12/14 08:28:43;;;;;;;64.23;31.93;;;;;;;-6.02;75.50;98583.61;1713672;84;21038;-39
2022/12/14 08:31:16;;;;;;;72.87;33.20;;;;;;;-5.92;75.44;98580.61;1713532;84;20995;-41
2022/12/14 08:33:44;;;;;;;68.47;30.72;;;;;;;-5.86;75.16;98584.00;1713410;84;21559;-38
2022/12/14 08:36:14;;;;;;;60.35;30.92;;;;;;;-5.92;74.74;98581.45;1713448;84;20999;-36
2022/12/14 08:38:40;;;;;;;71.75;32.53;;;;;;;-5.97;74.44;98580.63;1713443;84;21019;-41
2022/12/14 08:41:10;;;;;;;62.75;31.27;;;;;;;-5.89;74.52;98582.75;1713509;84;21038;-39
2022/12/14 08:43:37;;;;;;;75.85;29.92;;;;;;;-5.94;74.52;98582.33;1713328;82;21062;-37
2022/12/14 08:46:04;;;;;;;78.67;32.73;;;;;;;-6.04;74.46;98574.69;1713655;82;20995;-38
2022/12/14 08:48:30;;;;;;;62.05;28.12;;;;;;;-5.90;74.85;98582.74;1713470;84;20975;-42
2022/12/14 08:51:07;;;;;;;65.87;31.87;;;;;;;-6.01;74.10;98568.70;1713511;84;21484;-39
2022/12/14 08:53:34;;;;;;;61.13;29.42;;;;;;;-5.61;74.13;98561.77;1712608;84;21035;-43
2022/12/14 08:56:10;;;;;;;60.38;30.35;;;;;;;-5.29;73.25;98563.41;1713534;84;20992;-43
2022/12/14 08:58:37;;;;;;;63.78;30.55;;;;;;;-4.82;72.35;98562.77;1713513;84;20999;-36
2022/12/14 09:01:18;;;;;;;66.85;30.88;;;;;;;-4.82;72.35;98562.77;1713408;84;21026;-38
2022/12/14 09:03:45;;;;;;;55.40;28.15;;;;;;;-4.88;71.00;98548.27;1713501;84;20991;-35
2022/12/14 09:06:18;;;;;;;58.92;29.65;;;;;;;-4.88;71.00;98548.27;1713701;82;21039;-39
2022/12/14 09:08:46;;;;;;;59.90;29.87;;;;;;;-4.79;71.22;98544.80;1713392;84;21003;-41
2022/12/14 09:11:14;;;;;;;72.12;32.30;;;;;;;-4.84;71.35;98543.56;1713680;83;20999;-36
2022/12/14 09:13:41;;;;;;;75.32;33.67;;;;;;;-4.95;71.28;98544.46;1713424;84;20995;-35
2022/12/14 09:16:13;;;;;;;73.87;33.78;;;;;;;-4.93;71.77;98540.17;1713149;83;21035;-41
2022/12/14 09:18:39;;;;;;;78.97;36.25;;;;;;;-4.95;71.84;98538.05;1711384;82;21027;-38
2022/12/14 09:21:05;;;;;;;73.67;37.05;;;;;;;-4.89;72.28;98535.47;1712040;84;20983;-40
2022/12/14 09:23:33;;;;;;;63.95;32.17;;;;;;;-4.86;72.32;98532.88;1711856;84;21035;-36
2022/12/14 09:26:10;;;;;;;;;;;;;;;-4.99;72.27;98531.24;1714520;84;21003;-39
2022/12/14 09:28:39;;;;;;;72.65;34.10;;;;;;;-4.97;72.62;98532.08;1708027;83;20446;-39
2022/12/14 09:31:11;;;;;;;81.35;34.40;;;;;;;-5.09;72.29;98531.73;1707322;83;21016;-37
2022/12/14 09:33:38;;;;;;;75.97;35.48;;;;;;;-5.22;72.33;98525.77;1707335;83;21411;-40
2022/12/14 09:36:09;;;;;;;75.87;35.50;;;;;;;-5.25;72.99;98524.09;1707593;84;21003;-42
2022/12/14 09:38:38;;;;;;;72.08;35.17;;;;;;;-5.19;72.71;98521.08;1707280;83;21004;-40
2022/12/14 09:41:18;;;;;;;75.65;35.35;;;;;;;-5.27;72.95;98521.13;1699259;83;21405;-37
2022/12/14 09:44:29;;;;;;;81.60;38.50;;;;;;;-5.32;73.12;98508.75;1698839;82;21505;-40
2022/12/14 09:47:18;;;;;;;79.45;36.40;;;;;;;-5.30;73.19;98509.59;1697868;83;21034;-39
2022/12/14 09:50:00;;;;;;;70.90;34.67;;;;;;;-5.37;72.71;98506.63;1633024;88;21047;-37
2022/12/14 09:52:51;;;;;;;69.65;31.77;;;;;;;-5.18;72.82;98508.67;1687190;84;20995;-41
2022/12/14 09:55:37;;;;;;;78.45;36.68;;;;;;;-5.33;72.00;98513.03;1699006;83;21006;-39
2022/12/14 09:58:19;;;;;;;79.62;35.38;;;;;;;-5.28;71.95;98505.31;1698975;83;21018;-41
2022/12/14 10:00:59;;;;;;;81.40;36.80;;;;;;;-5.37;72.07;98503.62;1698953;84;20971;-39
2022/12/14 10:03:54;;;;;;;79.03;36.90;;;;;;;-5.37;72.18;98494.66;1711952;83;21038;-41
2022/12/14 10:06:38;;;;;;;68.12;34.53;;;;;;;-5.41;72.01;98489.98;1713126;84;20987;-41
2022/12/14 10:09:30;;;;;;;74.00;34.90;;;;;;;-5.55;72.01;98490.45;1713113;84;21023;-39
2022/12/14 10:12:24;;;;;;;80.95;37.88;;;;;;;-5.50;71.82;98491.30;1712523;84;21429;-43
2022/12/14 10:15:07;;;;;;;79.67;35.75;;;;;;;-5.57;72.36;98481.08;1713280;84;20987;-40
2022/12/14 10:18:02;;;;;;;83.25;37.75;;;;;;;-5.57;72.48;98485.77;1712452;82;20971;-37
2022/12/14 10:20:39;;;;;;;86.55;37.20;;;;;;;-5.59;72.43;98481.92;1713037;84;20991;-39
2022/12/14 10:23:09;;;;;;;;;;;;;;;-5.50;72.40;98475.92;1711303;83;21011;-39
2022/12/14 10:25:38;;;;;;;77.67;33.15;;;;;;;-5.44;72.20;98476.33;1708897;84;20117;-42
2022/12/14 10:28:09;;;;;;;91.20;40.15;;;;;;;-5.42;72.26;98467.79;1709323;84;20996;-39
2022/12/14 10:30:35;;;;;;;75.47;34.45;;;;;;;-5.46;72.45;98458.83;1706284;84;21113;-39
2022/12/14 10:33:18;;;;;;;83.55;39.03;;;;;;;-5.50;72.19;98455.43;1709234;84;20993;-39
2022/12/14 10:35:54;;;;;;;85.87;37.95;;;;;;;-5.37;72.37;98452.81;1709304;84;21032;-42
2022/12/14 10:38:58;;;;;;;89.75;39.13;;;;;;;-5.23;71.90;98449.76;1709285;84;21000;-41
2022/12/14 10:41:45;;;;;;;83.62;39.38;;;;;;;-5.18;71.99;98442.90;1708331;84;20999;-39
2022/12/14 10:44:48;;;;;;;84.17;38.00;;;;;;;-5.13;71.95;98439.01;1709024;83;21536;-40
2022/12/14 10:47:31;;;;;;;84.28;38.10;;;;;;;-5.08;71.54;98435.55;1709685;83;21078;-42
2022/12/14 10:50:26;;;;;;;75.83;35.17;;;;;;;-5.16;71.20;98429.64;1708622;84;21035;-40
2022/12/14 10:52:53;;;;;;;84.62;38.10;;;;;;;-5.08;71.11;98431.70;1709487;84;20988;-41
2022/12/14 10:55:32;;;;;;;79.55;39.63;;;;;;;-5.21;70.90;98426.25;1709899;84;20972;-39
2022/12/14 10:57:59;;;;;;;83.50;36.00;;;;;;;-5.20;71.23;98418.99;1709851;84;21433;-39
2022/12/14 11:00:25;;;;;;;80.25;37.60;;;;;;;-5.33;70.93;98425.03;1709770;84;21004;-40
2022/12/14 11:02:56;;;;;;;82.60;36.98;;;;;;;-5.27;71.09;98413.04;1709721;84;21007;-39
2022/12/14 11:05:55;;;;;;;82.78;39.67;;;;;;;-5.35;71.39;98419.91;1709831;83;20996;-38
2022/12/14 11:08:44;;;;;;;82.40;39.40;;;;;;;-5.26;71.62;98411.32;1709771;84;21003;-40
2022/12/14 11:11:23;;;;;;;79.90;36.88;;;;;;;-5.24;71.73;98401.91;1709755;84;21030;-39
2022/12/14 11:14:07;;;;;;;91.32;42.58;;;;;;;-5.47;71.54;98401.63;1709803;84;21521;-41
2022/12/14 11:16:37;;;;;;;88.75;41.05;;;;;;;-5.22;72.15;98398.49;1709846;84;21039;-41
2022/12/14 11:19:14;;;;;;;92.17;42.03;;;;;;;-5.15;71.92;98392.87;1709032;84;21036;-39
2022/12/14 11:21:40;;;;;;;79.70;37.08;;;;;;;-5.01;71.83;98395.36;1710031;84;21549;-42
2022/12/14 11:24:06;;;;;;;93.75;41.73;;;;;;;-5.04;71.31;98392.39;1709321;84;21000;-39
2022/12/14 11:26:37;;;;;;;89.90;41.55;;;;;;;-4.95;71.20;98385.48;1709865;83;21061;-38
2022/12/14 11:29:08;;;;;;;95.20;42.15;;;;;;;-4.84;71.31;98379.83;1709822;83;21007;-38
2022/12/14 11:31:51;;;;;;;88.85;40.55;;;;;;;-4.79;71.04;98378.52;1708560;82;21485;-37
2022/12/14 11:34:28;;;;;;;81.75;38.05;;;;;;;-4.74;71.04;98380.19;1716215;83;21631;-36
2022/12/14 11:36:54;;;;;;;86.05;38.78;;;;;;;-4.73;70.90;98378.05;1712381;82;21010;-40
2022/12/14 11:39:23;;;;;;;81.35;38.25;;;;;;;-4.71;70.32;98371.59;1715145;83;20980;-40
2022/12/14 11:42:01;;;;;;;85.00;39.05;;;;;;;-4.76;70.55;98365.69;1714439;82;21452;-39
2022/12/14 11:44:35;;;;;;;82.72;38.13;;;;;;;-4.66;70.51;98364.31;1722555;83;21038;-39
2022/12/14 11:47:11;;;;;;;86.95;40.00;;;;;;;-4.79;70.63;98363.98;1733082;82;20973;-40
2022/12/14 11:49:42;;;;;;;87.45;39.35;;;;;;;-4.56;70.74;98362.50;1723794;82;20970;-40
2022/12/14 11:52:20;;;;;;;86.87;39.80;;;;;;;-4.45;70.26;98359.83;1726359;82;21461;-37
2022/12/14 11:54:57;;;;;;;84.22;36.10;;;;;;;-4.39;70.04;98352.05;1731712;83;20987;-52
2022/12/14 11:57:33;;;;;;;87.82;41.28;;;;;;;-4.57;69.40;98358.66;1734339;81;20962;-39
2022/12/14 12:00:07;;;;;;;84.22;37.95;;;;;;;-4.45;69.74;98350.84;1735797;82;21045;-40
2022/12/14 12:02:49;;;;;;;93.00;43.58;;;;;;;-4.46;70.30;98342.72;1723727;82;21010;-40
2022/12/14 12:05:19;;;;;;;90.12;43.48;;;;;;;-4.46;70.30;98342.72;1734296;83;20966;-37